Latest Weather Observations for Braidwood

IDN60801

Issued at 11:03 pm EST Wednesday 27 July 2016 (issued every 30 minutes, with the page automatically refreshed every 10 minutes)

About weather observations | Map of weather stations | Latest weather observations for NSW | Other Formats
Station Details ID: 069132 Name: BRAIDWOOD RACECOURSE AWS Lat: -35.43 Lon: 149.78 Height: 665.2 m
Data from the previous 72 hours. | See also: Recent months at Braidwood
Date/Time
EST
Temp
°C
App
Temp
°C
Dew
Point
°C
Rel
Hum
%
Delta-T
°C
Wind Press
QNH
hPa
Press
MSL
hPa
Rain since
9am
mm
Dir  Spd
km/h
Gust
km/h
Spd
kts
Gust
kts
27/11:00pm 5.2 2.4 2.9 85 1.0 NW 7 11 4 6 1019.7 1020.8 0.0
27/10:30pm 4.6 2.5 1.8 82 1.2 NNE 2 4 1 2 1019.4 1020.5 0.0
27/10:00pm 5.2 2.2 2.0 80 1.3 ENE 7 11 4 6 1018.8 1019.9 0.0
27/09:30pm 6.0 2.3 2.6 79 1.5 NW 11 24 6 13 1018.2 1019.3 0.0
27/09:00pm 6.0 2.3 2.3 77 1.6 NW 11 19 6 10 1018.1 1019.2 0.0
27/08:30pm 4.9 2.3 1.2 77 1.5 NNW 4 9 2 5 1018.5 1019.6 0.0
27/08:00pm 6.5 1.9 1.6 71 2.1 WNW 15 22 8 12 1018.3 1019.4 0.0
27/07:30pm 5.4 2.5 1.7 77 1.5 NNW 6 13 3 7 1017.9 1019.0 0.0
27/07:00pm 6.8 1.6 2.3 73 1.9 NW 19 28 10 15 1017.1 1018.2 0.0
27/06:30pm 6.5 1.8 2.9 78 1.6 NW 17 28 9 15 1016.5 1017.6 0.0
27/06:00pm 7.2 2.1 2.9 74 1.9 NW 19 32 10 17 1016.1 1017.1 0.0
27/05:30pm 7.2 3.2 2.9 74 1.9 NW 13 22 7 12 1015.4 1016.5 0.0
27/05:00pm 7.9 3.9 2.8 70 2.2 NW 13 24 7 13 1014.9 1015.9 0.0
27/04:30pm 9.3 3.5 2.4 62 3.0 NW 22 33 12 18 1014.4 1015.4 0.0
27/04:00pm 10.0 4.7 2.8 61 3.2 WNW 20 35 11 19 1013.6 1014.6 0.0
27/03:30pm 10.7 5.3 2.5 57 3.7 NW 20 28 11 15 1013.3 1014.3 0.0
27/03:00pm 10.9 4.8 3.0 58 3.6 WNW 24 32 13 17 1012.8 1013.8 0.0
27/02:30pm 10.9 4.5 3.0 58 3.6 WNW 26 35 14 19 1012.1 1013.1 0.0
27/02:00pm 11.0 3.9 3.3 59 3.5 WNW 30 41 16 22 1011.9 1012.9 0.0
27/01:30pm 10.7 3.5 3.0 59 3.5 WNW 30 46 16 25 1011.7 1012.7 0.0
27/01:00pm 10.7 4.2 2.8 58 3.6 WNW 26 41 14 22 1011.7 1012.7 0.0
27/12:30pm 10.4 3.6 3.2 61 3.3 WNW 28 43 15 23 1011.6 1012.6 0.0
27/12:00pm 9.8 2.9 2.6 61 3.2 WNW 28 39 15 21 1011.6 1012.6 0.0
27/11:30am 9.8 5.1 3.1 63 3.0 WNW 17 30 9 16 1011.9 1012.9 0.0
27/11:00am 8.6 2.9 2.6 66 2.6 WNW 22 37 12 20 1011.6 1012.6 0.0
27/10:30am 8.2 3.1 3.1 70 2.3 WNW 19 26 10 14 1011.1 1012.0 0.0
27/10:00am 7.9 1.8 3.0 71 2.2 WNW 24 37 13 20 1010.7 1011.7 0.0
27/09:30am 7.8 2.6 3.3 73 2.0 NW 20 43 11 23 1010.1 1011.1 0.0
27/09:00am 7.1 1.9 3.3 77 1.7 NW 20 43 11 23 1010.0 1010.9 0.8
27/08:31am 6.3 -0.5 2.9 79 1.5 NW 28 48 15 26 1008.9 1009.9 0.8
27/08:30am 6.3 -0.9 2.8 78 1.5 NW 30 48 16 26 1008.9 1009.9 0.8
27/08:19am 6.2 -0.7 2.8 79 1.5 NW 28 48 15 26 1008.9 1009.9 0.8
27/08:00am 5.8 0.5 3.0 82 1.2 NW 20 35 11 19 1008.6 1009.5 0.8
27/07:30am 5.1 0.0 3.1 87 0.9 NW 19 28 10 15 1008.7 1009.6 0.8
27/07:00am 5.3 1.1 4.0 91 0.6 NW 15 26 8 14 1009.1 1010.1 0.8
27/06:30am 5.5 0.9 3.8 89 0.7 NW 17 28 9 15 1009.2 1010.2 0.0
27/06:00am 4.8 0.5 3.1 89 0.7 NW 15 26 8 14 1008.9 1009.9 0.0
27/05:30am 5.0 0.2 2.4 83 1.1 NW 17 28 9 15 1008.9 1009.9 0.0
27/05:00am 4.3 -0.3 1.8 84 1.0 NNW 15 28 8 15 1008.3 1009.2 0.0
27/04:30am 4.6 -1.3 1.8 82 1.2 NW 22 35 12 19 1007.6 1008.6 0.0
27/04:01am 4.6 -2.8 1.6 81 1.2 NW 30 48 16 26 1007.6 1008.6 0.0
27/04:00am 4.6 -3.2 1.6 81 1.2 NW 32 48 17 26 1007.6 1008.6 0.0
27/03:49am 4.7 -2.3 1.7 81 1.2 NW 28 46 15 25 1007.6 1008.6 0.0
27/03:30am 4.8 -1.1 1.5 79 1.4 NW 22 41 12 22 1007.9 1008.8 0.0
27/03:00am 4.8 -1.1 1.5 79 1.4 NW 22 35 12 19 1007.9 1008.8 0.0
27/02:30am 4.9 -0.6 1.7 80 1.3 NW 20 39 11 21 1008.7 1009.6 0.0
27/02:00am 5.0 -0.6 1.1 76 1.6 NW 20 33 11 18 1009.1 1010.1 0.0
27/01:30am 5.3 -1.9 0.9 73 1.8 NW 28 44 15 24 1010.1 1011.1 0.0
27/01:00am 5.3 -0.7 0.9 73 1.8 NW 22 37 12 20 1010.3 1011.3 0.0
27/12:30am 5.1 0.4 1.0 75 1.7 NW 15 33 8 18 1011.0 1011.9 0.0
27/12:00am 4.5 0.9 0.5 75 1.6 NNW 9 24 5 13 1011.3 1012.2 0.0
 
Date/Time
EST
Temp
°C
App
Temp
°C
Dew
Point
°C
Rel
Hum
%
Delta-T
°C
Wind Press
QNH
hPa
Press
MSL
hPa
Rain since
9am
mm
Dir  Spd
km/h
Gust
km/h
Spd
kts
Gust
kts
26/11:30pm 4.6 1.0 0.4 74 1.7 NNW 9 19 5 10 1011.3 1012.2 0.0
26/11:00pm 5.2 0.0 0.4 71 1.9 NW 17 32 9 17 1011.6 1012.6 0.0
26/10:30pm 5.1 -0.3 1.2 76 1.6 NW 19 26 10 14 1011.8 1012.8 0.0
26/10:00pm 5.2 -0.4 1.1 75 1.7 NW 20 33 11 18 1011.9 1012.9 0.0
26/09:30pm 5.1 -0.4 0.7 73 1.8 NNW 19 32 10 17 1011.8 1012.8 0.0
26/09:00pm 5.2 -0.3 0.4 71 1.9 NW 19 35 10 19 1012.0 1013.0 0.0
26/08:30pm 4.9 -0.3 0.3 72 1.8 NW 17 30 9 16 1012.1 1013.1 0.0
26/08:00pm 4.9 0.1 0.1 71 1.9 NW 15 26 8 14 1012.1 1013.1 0.0
26/07:30pm 5.2 0.0 -0.2 68 2.1 NW 17 32 9 17 1012.1 1013.1 0.0
26/07:00pm 5.6 -0.1 -0.7 64 2.5 NW 19 33 10 18 1012.2 1013.2 0.0
26/06:30pm 5.8 -0.5 -1.1 61 2.7 NW 22 37 12 20 1012.4 1013.4 0.0
26/06:00pm 5.6 -0.4 -1.3 61 2.7 NW 20 35 11 19 1012.3 1013.3 0.0
26/05:30pm 5.7 -0.3 -1.2 61 2.7 NW 20 35 11 19 1012.0 1013.0 0.0
26/05:00pm 6.1 -0.7 -1.5 58 3.0 NW 24 41 13 22 1011.8 1012.8 0.0
26/04:30pm 7.0 0.6 -1.4 55 3.3 NW 22 35 12 19 1011.4 1012.4 0.0
26/04:12pm 7.2 -0.3 -1.2 55 3.3 NW 28 48 15 26 1011.3 1012.2 0.0
26/04:00pm 7.4 0.0 -1.0 55 3.4 NW 28 44 15 24 1011.3 1012.2 0.0
26/03:30pm 8.0 1.8 0.0 57 3.3 NW 22 35 12 19 1011.3 1012.2 0.0
26/03:00pm 8.6 2.0 -0.4 53 3.7 WNW 24 33 13 18 1011.4 1012.4 0.0
26/02:30pm 8.9 2.3 -0.1 53 3.7 WNW 24 35 13 19 1011.4 1012.4 0.0
26/02:00pm 8.6 0.4 -0.9 51 3.8 WNW 32 46 17 25 1011.3 1012.2 0.0
26/01:30pm 8.5 0.6 -1.9 48 4.1 WNW 30 43 16 23 1011.5 1012.5 0.0
26/01:00pm 8.3 0.8 -1.2 51 3.8 WNW 28 43 15 23 1011.9 1012.9 0.0
26/12:30pm 8.4 1.2 0.4 57 3.3 WNW 28 41 15 22 1012.2 1013.2 0.0
26/12:00pm 8.4 1.5 -0.1 55 3.5 WNW 26 43 14 23 1012.7 1013.7 0.0
26/11:30am 7.7 -0.9 -2.3 49 3.9 WNW 33 57 18 31 1012.9 1013.9 0.0
26/11:24am 7.7 -0.9 -2.3 49 3.9 WNW 33 57 18 31 1012.9 1013.9 0.0
26/11:22am 7.8 -0.5 -2.0 50 3.8 WNW 32 52 17 28 1012.9 1013.9 0.0
26/11:00am 8.0 2.6 -1.2 52 3.7 NW 17 28 9 15 1013.2 1014.2 0.0
26/10:30am 7.9 2.6 -0.6 55 3.4 NW 17 28 9 15 1013.0 1014.0 0.0
26/10:00am 7.5 1.7 -1.2 54 3.5 NW 19 33 10 18 1013.0 1014.0 0.0
26/09:33am 6.8 -1.6 -1.1 57 3.1 WNW 33 54 18 29 1012.4 1013.4 0.0
26/09:30am 6.8 -2.1 -1.6 55 3.3 WNW 35 54 19 29 1012.2 1013.2 0.0
26/09:27am 6.6 -2.1 -0.4 61 2.8 NW 35 54 19 29 1012.2 1013.2 0.0
26/09:00am 6.2 -0.4 -0.1 64 2.5 NW 24 37 13 20 1012.3 1013.3 0.0
26/08:30am 6.0 1.9 -0.5 63 2.6 NNE 11 26 6 14 1013.4 1014.4 0.0
26/08:00am 5.0 1.6 -0.8 66 2.3 NNW 7 19 4 10 1013.1 1014.1 0.0
26/07:30am 5.0 -0.3 -0.8 66 2.3 WNW 17 37 9 20 1012.4 1013.4 0.0
26/07:00am 5.2 -2.1 0.0 69 2.1 WNW 28 50 15 27 1011.8 1012.8 0.0
26/06:38am 5.4 -2.8 0.6 71 1.9 WNW 33 54 18 29 1011.4 1012.4 0.0
26/06:30am 5.7 -3.1 1.1 72 1.9 WNW 37 50 20 27 1011.3 1012.2 0.0
26/06:01am 5.8 -1.6 1.9 76 1.6 WNW 30 48 16 26 1011.2 1012.1 0.0
26/06:00am 5.8 -2.0 1.9 76 1.6 WNW 32 48 17 26 1011.2 1012.1 0.0
26/05:30am 5.8 -4.2 1.9 76 1.6 WNW 44 69 24 37 1009.5 1010.4 0.0
26/05:00am 6.1 -4.6 2.4 77 1.6 NW 48 72 26 39 1007.8 1008.7 0.0
26/04:30am 6.2 -5.2 2.7 78 1.5 NW 52 76 28 41 1007.8 1008.7 0.0
26/04:00am 5.9 -5.9 2.9 81 1.3 NW 54 80 29 43 1007.5 1008.4 0.0
26/03:30am 5.9 -5.9 2.5 79 1.5 NW 54 74 29 40 1007.1 1008.0 0.0
26/03:00am 5.9 -6.0 2.2 77 1.6 NW 54 85 29 46 1006.8 1007.7 0.0
26/02:30am 6.4 -6.5 2.1 74 1.8 WNW 59 89 32 48 1006.4 1007.3 0.0
26/02:00am 6.5 -6.3 2.2 74 1.8 NW 59 89 32 48 1006.4 1007.3 0.0
26/01:39am 6.5 -5.0 2.4 75 1.8 NW 52 91 28 49 1006.4 1007.3 0.0
26/01:30am 6.5 -3.5 2.4 75 1.8 NW 44 69 24 37 1006.6 1007.5 0.0
26/01:00am 6.4 -2.2 2.5 76 1.7 NW 37 67 20 36 1007.9 1008.8 0.0
26/12:30am 6.3 -2.3 2.4 76 1.7 NW 37 65 20 35 1008.7 1009.6 0.0
26/12:00am 6.0 -3.1 1.7 74 1.8 NW 39 65 21 35 1008.6 1009.5 0.0
 
Date/Time
EST
Temp
°C
App
Temp
°C
Dew
Point
°C
Rel
Hum
%
Delta-T
°C
Wind Press
QNH
hPa
Press
MSL
hPa
Rain since
9am
mm
Dir  Spd
km/h
Gust
km/h
Spd
kts
Gust
kts
25/11:30pm 6.2 -4.3 1.5 72 2.0 NW 46 74 25 40 1008.0 1008.9 0.0
25/11:00pm 6.1 -5.5 1.8 74 1.8 NW 52 78 28 42 1007.5 1008.4 0.0
25/10:30pm 5.9 -5.7 1.6 74 1.8 NW 52 80 28 43 1007.0 1007.9 0.0
25/10:00pm 5.9 -5.4 1.4 73 1.9 NW 50 76 27 41 1007.1 1008.0 0.0
25/09:30pm 6.0 -6.0 1.3 72 2.0 WNW 54 80 29 43 1007.4 1008.3 0.0
25/09:00pm 6.0 -5.3 1.0 70 2.1 WNW 50 76 27 41 1007.3 1008.2 0.0
25/08:30pm 6.0 -4.9 1.2 71 2.0 WNW 48 74 26 40 1007.6 1008.6 0.0
25/08:00pm 6.0 -1.8 2.8 80 1.4 WNW 33 59 18 32 1008.3 1009.2 0.0
25/07:30pm 6.3 -1.7 1.8 73 1.9 NW 33 56 18 30 1008.8 1009.8 0.0
25/07:13pm 6.5 -0.4 2.4 75 1.8 NW 28 61 15 33 1009.5 1010.4 0.0
25/07:00pm 6.4 0.6 2.5 76 1.7 NW 22 41 12 22 1009.7 1010.6 0.0
25/06:30pm 6.7 1.5 2.6 75 1.8 NW 19 39 10 21 1009.7 1010.6 0.0
25/06:00pm 6.7 1.6 3.0 77 1.6 NW 19 35 10 19 1009.6 1010.5 0.0
25/05:30pm 6.7 2.8 3.5 80 1.4 NW 13 28 7 15 1009.7 1010.6 0.0
25/05:00pm 6.6 1.3 2.9 77 1.6 NW 20 35 11 19 1009.9 1010.8 0.0
25/04:30pm 7.0 -0.3 2.3 72 2.0 NW 30 48 16 26 1009.9 1010.8 0.0
25/04:08pm 7.0 0.0 2.1 71 2.1 NW 28 52 15 28 1009.9 1010.8 0.0
25/04:00pm 7.0 0.4 2.1 71 2.1 NW 26 35 14 19 1010.0 1010.9 0.0
25/03:30pm 7.5 -0.9 1.6 66 2.5 NW 35 48 19 26 1009.9 1010.8 0.0
25/03:02pm 7.4 0.4 1.7 67 2.4 NW 28 46 15 25 1009.9 1010.8 0.0
25/03:00pm 7.4 -0.1 1.3 65 2.6 NW 30 46 16 25 1009.9 1010.8 0.0
25/02:38pm 8.2 0.4 1.8 64 2.7 NW 32 52 17 28 1009.4 1010.3 0.0
25/02:30pm 8.0 1.3 1.6 64 2.7 NW 26 44 14 24 1009.4 1010.3 0.0
25/02:00pm 9.0 2.9 2.6 64 2.8 NW 24 43 13 23 1009.5 1010.4 0.0
25/01:30pm 8.7 4.4 3.1 68 2.5 NNW 15 30 8 16 1010.1 1011.1 0.0
25/01:00pm 8.9 3.1 2.3 63 2.9 NW 22 32 12 17 1010.2 1011.2 0.0
25/12:49pm 8.3 1.2 1.2 61 3.0 NW 28 48 15 26 1010.2 1011.2 0.0
25/12:30pm 9.1 3.3 2.4 63 2.9 NW 22 37 12 20 1010.3 1011.3 0.0
25/12:00pm 8.8 3.0 2.4 64 2.8 NW 22 37 12 20 1010.5 1011.5 0.0
25/11:30am 8.6 2.7 2.0 63 2.9 NW 22 35 12 19 1010.4 1011.4 0.0
25/11:00am 8.3 2.8 1.9 64 2.8 NW 20 33 11 18 1010.7 1011.7 0.0
25/10:30am 7.3 1.3 1.2 65 2.6 NW 22 39 12 21 1010.6 1011.6 0.0
25/10:00am 7.1 1.2 2.0 70 2.2 NW 22 33 12 18 1010.5 1011.5 0.0
25/09:30am 6.6 3.2 1.7 71 2.1 NNW 9 24 5 13 1010.8 1011.8 0.0
25/09:00am 6.1 2.8 2.2 76 1.7 NW 9 20 5 11 1010.1 1011.1 2.8
25/08:30am 5.4 0.3 2.8 83 1.1 NW 19 32 10 17 1009.5 1010.4 2.8
25/08:00am 4.8 1.5 2.3 84 1.1 NW 9 20 5 11 1009.7 1010.6 2.8
25/07:30am 4.6 1.8 2.3 85 1.0 N 6 13 3 7 1009.5 1010.4 2.8
25/07:00am 4.2 1.8 2.2 87 0.8 NNW 4 9 2 5 1009.1 1010.1 2.8
25/06:30am 3.7 0.7 2.1 89 0.7 NW 7 17 4 9 1008.3 1009.2 2.8
25/06:00am 3.3 -2.0 2.0 91 0.5 NW 19 30 10 16 1007.4 1008.3 2.8
25/05:30am 3.6 -2.7 1.8 88 0.7 NW 24 39 13 21 1007.2 1008.1 2.8
25/05:00am 3.3 -1.6 1.7 89 0.7 NW 17 28 9 15 1007.3 1008.2 2.8
25/04:30am 3.2 -1.4 1.3 87 0.8 NW 15 24 8 13 1007.5 1008.4 2.8
25/04:00am 3.5 -2.0 0.9 83 1.0 NW 19 32 10 17 1007.4 1008.3 2.8
25/03:30am 3.7 -1.9 1.3 84 1.0 NW 20 30 11 16 1007.1 1008.0 2.8
25/03:00am 3.9 -2.4 1.4 84 1.0 NW 24 39 13 21 1007.1 1008.0 2.8
25/02:30am 3.7 -1.8 1.7 87 0.8 NW 20 32 11 17 1007.4 1008.3 2.8
25/02:00am 3.1 -0.3 2.1 93 0.4 NNW 9 19 5 10 1007.6 1008.6 2.8
25/01:30am 3.1 -0.7 1.8 91 0.5 NNW 11 22 6 12 1007.8 1008.7 2.8
25/01:00am 4.2 -0.2 2.7 90 0.6 NW 15 26 8 14 1008.2 1009.1 2.0
25/12:30am 4.5 -0.2 3.2 91 0.6 NW 17 28 9 15 1008.1 1009.0 1.4
25/12:00am 3.8 0.2 2.9 94 0.4 NW 11 19 6 10 1008.4 1009.3 1.0
 
Date/Time
EST
Temp
°C
App
Temp
°C
Dew
Point
°C
Rel
Hum
%
Delta-T
°C
Wind Press
QNH
hPa
Press
MSL
hPa
Rain since
9am
mm
Dir  Spd
km/h
Gust
km/h
Spd
kts
Gust
kts
24/11:30pm 3.6 0.7 2.7 94 0.4 NNW 7 11 4 6 1008.8 1009.8 1.0

Other Formats:

Comma delimited format used in spreadsheet applications
http://www.bom.gov.au/fwo/IDN60801/IDN60801.94927.axf

JavaScript Object Notation format (JSON) in row-major order
http://www.bom.gov.au/fwo/IDN60801/IDN60801.94927.json